sensor_id;sensor_type;location;lat;lon;timestamp;pressure;altitude;pressure_sealevel;temperature;humidity
75188;BME280;63762;51.334;22.108;2023-02-21T00:03:33;100321.45;;;8.20;74.17
75188;BME280;63762;51.334;22.108;2023-02-21T00:13:46;100316.78;;;8.11;75.03
75188;BME280;63762;51.334;22.108;2023-02-21T00:23:59;100329.34;;;8.11;73.98
75188;BME280;63762;51.334;22.108;2023-02-21T00:34:12;100328.11;;;8.04;73.66
75188;BME280;63762;51.334;22.108;2023-02-21T00:44:26;100318.55;;;8.00;72.85
75188;BME280;63762;51.334;22.108;2023-02-21T00:54:39;100337.66;;;7.95;74.87
75188;BME280;63762;51.334;22.108;2023-02-21T01:04:52;100338.70;;;8.05;75.84
75188;BME280;63762;51.334;22.108;2023-02-21T01:15:06;100338.19;;;7.77;78.87
75188;BME280;63762;51.334;22.108;2023-02-21T01:25:19;100355.14;;;7.65;78.44
75188;BME280;63762;51.334;22.108;2023-02-21T01:35:32;100319.88;;;7.71;75.23
75188;BME280;63762;51.334;22.108;2023-02-21T01:45:48;100336.29;;;7.66;78.74
75188;BME280;63762;51.334;22.108;2023-02-21T01:56:02;100308.49;;;7.56;79.30
75188;BME280;63762;51.334;22.108;2023-02-21T02:06:16;100332.47;;;7.58;76.23
75188;BME280;63762;51.334;22.108;2023-02-21T02:37:08;100295.63;;;7.61;72.46
75188;BME280;63762;51.334;22.108;2023-02-21T02:47:24;100305.44;;;7.73;71.95
75188;BME280;63762;51.334;22.108;2023-02-21T02:57:21;100292.28;;;7.70;75.23
75188;BME280;63762;51.334;22.108;2023-02-21T03:17:39;100304.84;;;7.34;80.98
75188;BME280;63762;51.334;22.108;2023-02-21T03:27:43;100310.08;;;6.99;84.42
75188;BME280;63762;51.334;22.108;2023-02-21T03:37:49;100326.76;;;6.90;84.68
75188;BME280;63762;51.334;22.108;2023-02-21T03:47:53;100307.84;;;6.93;85.33
75188;BME280;63762;51.334;22.108;2023-02-21T03:57:54;100324.73;;;6.81;86.74
75188;BME280;63762;51.334;22.108;2023-02-21T04:07:56;100318.63;;;6.79;86.61
75188;BME280;63762;51.334;22.108;2023-02-21T04:17:57;100306.34;;;6.76;85.31
75188;BME280;63762;51.334;22.108;2023-02-21T04:27:58;100316.17;;;6.76;83.50
75188;BME280;63762;51.334;22.108;2023-02-21T04:37:59;100309.13;;;6.75;83.17
75188;BME280;63762;51.334;22.108;2023-02-21T04:48:00;100311.58;;;6.78;81.95
75188;BME280;63762;51.334;22.108;2023-02-21T04:58:01;100323.99;;;6.66;80.37
75188;BME280;63762;51.334;22.108;2023-02-21T05:08:02;100322.71;;;6.59;79.85
75188;BME280;63762;51.334;22.108;2023-02-21T05:18:03;100326.77;;;6.65;79.04
75188;BME280;63762;51.334;22.108;2023-02-21T05:28:04;100320.47;;;6.53;78.86
75188;BME280;63762;51.334;22.108;2023-02-21T05:38:05;100338.31;;;6.53;79.02
75188;BME280;63762;51.334;22.108;2023-02-21T05:48:06;100364.93;;;6.54;78.98
75188;BME280;63762;51.334;22.108;2023-02-21T05:58:07;100369.65;;;6.51;77.57
75188;BME280;63762;51.334;22.108;2023-02-21T06:08:08;100364.10;;;6.54;75.24
75188;BME280;63762;51.334;22.108;2023-02-21T06:18:14;100370.09;;;6.70;74.29
75188;BME280;63762;51.334;22.108;2023-02-21T06:28:15;100386.23;;;6.81;71.36
75188;BME280;63762;51.334;22.108;2023-02-21T06:38:17;100415.11;;;6.88;71.97
75188;BME280;63762;51.334;22.108;2023-02-21T06:48:18;100407.97;;;6.89;71.37
75188;BME280;63762;51.334;22.108;2023-02-21T06:58:19;100411.35;;;6.91;68.64
75188;BME280;63762;51.334;22.108;2023-02-21T07:08:20;100423.55;;;6.82;67.47
75188;BME280;63762;51.334;22.108;2023-02-21T07:18:21;100443.55;;;6.77;66.42
75188;BME280;63762;51.334;22.108;2023-02-21T07:28:22;100463.09;;;6.65;66.35
75188;BME280;63762;51.334;22.108;2023-02-21T07:38:26;100472.40;;;6.72;66.65
75188;BME280;63762;51.334;22.108;2023-02-21T07:48:27;100467.09;;;6.97;63.84
75188;BME280;63762;51.334;22.108;2023-02-21T07:58:28;100473.62;;;7.43;63.80
75188;BME280;63762;51.334;22.108;2023-02-21T08:08:29;100475.32;;;7.57;60.98
75188;BME280;63762;51.334;22.108;2023-02-21T08:18:30;100488.62;;;7.46;60.10
75188;BME280;63762;51.334;22.108;2023-02-21T08:28:31;100511.72;;;7.59;59.82
75188;BME280;63762;51.334;22.108;2023-02-21T08:38:32;100527.36;;;7.53;60.36
75188;BME280;63762;51.334;22.108;2023-02-21T08:48:33;100543.74;;;7.48;60.89
75188;BME280;63762;51.334;22.108;2023-02-21T08:58:38;100565.23;;;7.34;62.36
75188;BME280;63762;51.334;22.108;2023-02-21T09:08:46;100570.59;;;7.34;63.86
75188;BME280;63762;51.334;22.108;2023-02-21T09:18:55;100623.08;;;7.49;62.41
75188;BME280;63762;51.334;22.108;2023-02-21T09:29:00;100622.75;;;7.41;62.47
75188;BME280;63762;51.334;22.108;2023-02-21T09:39:07;100646.29;;;7.36;62.00
75188;BME280;63762;51.334;22.108;2023-02-21T09:59:28;100630.06;;;7.64;60.46
75188;BME280;63762;51.334;22.108;2023-02-21T10:19:43;100675.23;;;6.90;68.45
75188;BME280;63762;51.334;22.108;2023-02-21T10:50:11;100695.74;;;8.07;63.95
75188;BME280;63762;51.334;22.108;2023-02-21T11:00:23;100692.74;;;8.49;64.12
75188;BME280;63762;51.334;22.108;2023-02-21T11:20:34;100697.58;;;8.19;60.81
75188;BME280;63762;51.334;22.108;2023-02-21T11:33:39;100712.79;;;8.06;60.03
75188;BME280;63762;51.334;22.108;2023-02-21T11:43:46;100716.34;;;8.19;59.78
75188;BME280;63762;51.334;22.108;2023-02-21T11:53:47;100731.77;;;8.03;60.84
75188;BME280;63762;51.334;22.108;2023-02-21T12:04:06;100751.45;;;7.90;60.27
75188;BME280;63762;51.334;22.108;2023-02-21T13:05:25;100790.10;;;7.73;60.34
75188;BME280;63762;51.334;22.108;2023-02-21T13:15:29;100790.22;;;7.84;60.92
75188;BME280;63762;51.334;22.108;2023-02-21T13:25:43;100788.58;;;8.21;58.90
75188;BME280;63762;51.334;22.108;2023-02-21T13:35:43;100820.06;;;8.05;59.44
75188;BME280;63762;51.334;22.108;2023-02-21T13:45:46;100830.52;;;7.95;58.85
75188;BME280;63762;51.334;22.108;2023-02-21T14:16:19;100863.83;;;7.65;60.04
75188;BME280;63762;51.334;22.108;2023-02-21T14:26:34;100879.80;;;7.66;59.80
75188;BME280;63762;51.334;22.108;2023-02-21T14:36:37;100901.27;;;7.52;60.31
75188;BME280;63762;51.334;22.108;2023-02-21T15:07:16;100940.49;;;7.25;61.29
75188;BME280;63762;51.334;22.108;2023-02-21T15:17:21;100954.42;;;7.30;61.13
75188;BME280;63762;51.334;22.108;2023-02-21T15:27:23;100961.69;;;7.14;62.19
75188;BME280;63762;51.334;22.108;2023-02-21T15:37:27;100955.20;;;7.18;61.72
75188;BME280;63762;51.334;22.108;2023-02-21T15:47:32;100970.68;;;7.13;62.27
75188;BME280;63762;51.334;22.108;2023-02-21T15:57:35;101007.16;;;7.14;63.12
75188;BME280;63762;51.334;22.108;2023-02-21T16:07:36;101008.12;;;6.99;66.67
75188;BME280;63762;51.334;22.108;2023-02-21T16:17:41;101037.00;;;6.78;67.83
75188;BME280;63762;51.334;22.108;2023-02-21T16:27:49;101040.50;;;6.79;70.25
75188;BME280;63762;51.334;22.108;2023-02-21T16:37:55;101062.32;;;6.42;69.27
75188;BME280;63762;51.334;22.108;2023-02-21T16:48:01;101064.48;;;6.51;68.27
75188;BME280;63762;51.334;22.108;2023-02-21T16:58:10;101067.32;;;6.48;66.60
75188;BME280;63762;51.334;22.108;2023-02-21T17:08:13;101081.71;;;6.61;65.66
75188;BME280;63762;51.334;22.108;2023-02-21T17:18:14;101095.83;;;6.63;65.80
75188;BME280;63762;51.334;22.108;2023-02-21T17:28:15;101107.56;;;6.60;66.06
75188;BME280;63762;51.334;22.108;2023-02-21T17:38:16;101113.44;;;6.67;66.11
75188;BME280;63762;51.334;22.108;2023-02-21T17:48:17;101100.77;;;6.55;67.26
75188;BME280;63762;51.334;22.108;2023-02-21T17:58:18;101123.42;;;6.17;68.41
75188;BME280;63762;51.334;22.108;2023-02-21T18:08:19;101115.41;;;6.01;69.45
75188;BME280;63762;51.334;22.108;2023-02-21T18:18:20;101127.38;;;6.10;70.68
75188;BME280;63762;51.334;22.108;2023-02-21T18:28:26;101132.88;;;6.07;70.87
75188;BME280;63762;51.334;22.108;2023-02-21T18:38:33;101148.26;;;6.19;70.39
75188;BME280;63762;51.334;22.108;2023-02-21T18:48:45;101141.70;;;6.24;70.14
75188;BME280;63762;51.334;22.108;2023-02-21T18:58:47;101165.51;;;6.29;69.45
75188;BME280;63762;51.334;22.108;2023-02-21T19:08:54;101178.87;;;6.29;69.63
75188;BME280;63762;51.334;22.108;2023-02-21T19:19:01;101174.48;;;6.28;69.53
75188;BME280;63762;51.334;22.108;2023-02-21T19:29:08;101191.92;;;6.18;69.44
75188;BME280;63762;51.334;22.108;2023-02-21T19:39:16;101207.87;;;6.19;69.25
75188;BME280;63762;51.334;22.108;2023-02-21T19:49:23;101206.34;;;6.31;68.56
75188;BME280;63762;51.334;22.108;2023-02-21T19:59:29;101210.11;;;6.11;69.18
75188;BME280;63762;51.334;22.108;2023-02-21T20:09:37;101223.34;;;5.97;69.29
75188;BME280;63762;51.334;22.108;2023-02-21T20:19:44;101229.67;;;5.78;69.85
75188;BME280;63762;51.334;22.108;2023-02-21T20:29:51;101248.67;;;5.72;70.21
75188;BME280;63762;51.334;22.108;2023-02-21T20:39:58;101257.24;;;5.78;69.88
75188;BME280;63762;51.334;22.108;2023-02-21T20:50:06;101253.55;;;5.81;70.27
75188;BME280;63762;51.334;22.108;2023-02-21T21:00:13;101277.01;;;5.74;70.32
75188;BME280;63762;51.334;22.108;2023-02-21T21:10:20;101280.17;;;5.65;70.75
75188;BME280;63762;51.334;22.108;2023-02-21T21:20:26;101296.72;;;5.72;70.81
75188;BME280;63762;51.334;22.108;2023-02-21T21:30:33;101304.12;;;5.67;70.84
75188;BME280;63762;51.334;22.108;2023-02-21T21:40:41;101310.63;;;5.78;70.17
75188;BME280;63762;51.334;22.108;2023-02-21T21:50:48;101327.03;;;5.71;71.06
75188;BME280;63762;51.334;22.108;2023-02-21T22:00:55;101329.13;;;5.64;71.21
75188;BME280;63762;51.334;22.108;2023-02-21T22:11:03;101339.58;;;5.69;71.23
75188;BME280;63762;51.334;22.108;2023-02-21T22:21:09;101352.01;;;5.70;70.70
75188;BME280;63762;51.334;22.108;2023-02-21T22:31:17;101369.46;;;5.58;71.21
75188;BME280;63762;51.334;22.108;2023-02-21T22:41:28;101363.36;;;5.56;71.39
75188;BME280;63762;51.334;22.108;2023-02-21T22:51:31;101378.70;;;5.70;70.82
75188;BME280;63762;51.334;22.108;2023-02-21T23:01:38;101404.04;;;5.43;71.45
75188;BME280;63762;51.334;22.108;2023-02-21T23:11:48;101410.61;;;5.36;72.79
75188;BME280;63762;51.334;22.108;2023-02-21T23:21:52;101420.13;;;5.23;75.22
75188;BME280;63762;51.334;22.108;2023-02-21T23:31:59;101430.20;;;5.16;75.26
75188;BME280;63762;51.334;22.108;2023-02-21T23:42:08;101438.05;;;5.01;75.48
75188;BME280;63762;51.334;22.108;2023-02-21T23:52:13;101453.41;;;4.96;75.64
